PST,Max TemperatureF,Mean TemperatureF,Min TemperatureF,Max Dew PointF,MeanDew PointF,Min DewpointF,Max Humidity, Mean Humidity, Min Humidity, Max Sea Level PressureIn, Mean Sea Level PressureIn, Min Sea Level PressureIn, Max VisibilityMiles, Mean VisibilityMiles, Min VisibilityMiles, Max Wind SpeedMPH, Mean Wind SpeedMPH, Max Gust SpeedMPH,PrecipitationIn, CloudCover, Events, WindDirDegrees
2013-2-1,71,52,32,38,28,23,75,46,17,30.15,30.11,30.06,,,,16,6,21,0.00,,,50
2013-2-2,72,57,41,34,28,23,50,34,17,30.16,30.11,30.06,,,,23,10,26,0.00,,,46
2013-2-3,68,59,49,44,41,37,80,59,37,30.06,30.01,29.94,,,,16,5,29,0.00,,,351
2013-2-4,70,53,36,44,35,29,92,57,22,30.04,29.98,29.91,,,,16,7,20,0.00,,,50
2013-2-5,66,49,32,47,38,27,82,58,34,30.00,29.95,29.89,,,,18,7,22,0.00,,,190
2013-2-6,58,50,42,43,39,29,89,72,55,30.05,29.96,29.91,,,,15,4,17,0.00,,,224
2013-2-7,64,46,28,45,34,24,85,54,23,30.06,30.00,29.91,,,,17,7,21,0.00,,,226
2013-2-8,46,42,37,37,35,31,86,76,65,29.93,29.87,29.81,,,,30,16,36,0.12,,,239
2013-2-9,46,40,33,35,32,25,96,81,65,30.05,29.95,29.85,,,,17,9,22,0.05,,,223
2013-2-10,45,35,24,35,30,22,92,75,58,30.03,29.99,29.95,,,,17,6,21,0.00,,,242
2013-2-11,50,40,29,34,26,14,92,69,45,30.17,30.05,29.97,,,,17,4,20,0.00,,,58
2013-2-12,57,40,22,32,16,7,68,42,16,30.27,30.21,30.15,,,,20,6,23,0.00,,,48
2013-2-13,64,44,24,34,22,16,68,44,19,30.20,30.14,30.07,,,,20,8,26,0.00,,,40
2013-2-14,67,48,28,27,23,20,72,46,19,30.11,30.08,30.03,,,,25,11,30,0.00,,,45
2013-2-15,65,59,53,21,16,9,26,21,15,30.13,30.09,30.04,,,,35,19,46,0.00,,,48
2013-2-16,69,62,55,19,12,8,16,13,9,30.12,30.04,29.95,,,,27,18,39,0.00,,,54
2013-2-17,64,45,26,31,22,15,68,43,17,29.96,29.93,29.88,,,,21,9,26,0.00,,,27
2013-2-18,64,44,23,41,28,18,75,48,20,30.00,29.94,29.88,,,,20,8,23,0.00,,,110
2013-2-19,44,42,40,40,36,33,100,85,70,29.89,29.80,29.66,,,,18,9,24,0.01,,,232
2013-2-20,45,40,34,43,30,26,100,77,53,29.96,29.76,29.61,,,,29,15,40,0.30,,,253
2013-2-21,47,36,25,38,31,22,92,79,65,30.03,29.97,29.90,,,,15,4,18,0.00,,,87
2013-2-22,59,42,25,31,25,18,92,57,22,30.13,30.09,30.03,,,,14,5,17,0.00,,,32
2013-2-23,60,44,27,34,27,22,78,55,32,30.09,29.97,29.88,,,,20,7,25,0.00,,,312
2013-2-24,53,41,28,26,8,0,85,49,13,30.14,30.01,29.88,,,,38,17,47,0.00,,,45
2013-2-25,63,43,22,19,13,5,60,36,12,30.17,30.09,30.02,,,,20,6,25,0.00,,,14
2013-2-26,62,42,22,19,15,11,74,45,15,30.08,29.99,29.95,,,,32,13,38,0.00,,,56
2013-2-27,60,49,38,12,9,7,33,23,12,30.24,30.14,30.06,,,,32,14,39,0.00,,,44
2013-2-28,66,53,39,16,6,2,27,18,9,30.28,30.22,30.17,,,,31,15,40,0.00,,,40